Time,TemperatureF,DewpointF,PressureIn,WindDirection,WindDirectionDegrees,WindSpeedMPH,WindSpeedGustMPH,Humidity,HourlyPrecipIn,Conditions,Clouds,dailyrainin,SoftwareType,DateUTC
2013-05-03 00:00:00,47.6,43.9,30.00,North,6,3.0,9.0,87,0.00,RA,,0.00,WeatherDisplay:10.37,2013-05-03 05:00:00,
2013-05-03 00:05:00,47.4,43.7,30.00,NNE,21,9.0,11.0,87,0.00,RA,,0.00,WeatherDisplay:10.37,2013-05-03 05:05:00,
2013-05-03 00:10:00,47.4,43.7,30.00,North,9,3.0,6.0,87,0.00,SCT,,0.00,WeatherDisplay:10.37,2013-05-03 05:10:00,
2013-05-03 00:15:00,47.3,43.6,30.00,North,7,6.0,11.0,87,0.00,SCT,,0.00,WeatherDisplay:10.37,2013-05-03 05:15:00,
2013-05-03 00:25:00,47.0,43.0,30.00,NNE,31,7.0,14.0,86,0.00,CLR,,0.00,WeatherDisplay:10.37,2013-05-03 05:25:00,
2013-05-03 00:30:00,46.7,42.7,30.00,NNE,16,12.0,17.0,86,0.00,CLR,,0.00,WeatherDisplay:10.37,2013-05-03 05:30:00,
2013-05-03 00:35:00,46.7,42.7,29.99,NNE,27,8.0,14.0,86,0.00,CLR,,0.00,WeatherDisplay:10.37,2013-05-03 05:35:00,
2013-05-03 00:40:00,46.7,42.7,29.99,NNE,33,7.0,15.0,86,0.00,CLR,,0.00,WeatherDisplay:10.37,2013-05-03 05:40:00,
2013-05-03 00:45:00,46.7,42.7,30.00,NE,37,8.0,11.0,86,0.00,CLR,,0.00,WeatherDisplay:10.37,2013-05-03 05:45:00,
2013-05-03 00:50:00,46.7,42.7,29.99,NE,34,3.0,11.0,86,0.00,CLR,,0.00,WeatherDisplay:10.37,2013-05-03 05:50:00,
2013-05-03 00:55:00,46.7,42.7,29.98,NE,35,6.0,9.0,86,0.00,CLR,,0.00,WeatherDisplay:10.37,2013-05-03 05:55:00,
2013-05-03 01:00:00,46.7,42.7,29.98,NNE,28,8.0,11.0,86,0.00,CLR,,0.00,WeatherDisplay:10.37,2013-05-03 06:00:00,
2013-05-03 01:05:00,46.7,42.7,29.99,NNE,25,2.0,8.0,86,0.00,SCT,,0.00,WeatherDisplay:10.37,2013-05-03 06:05:00,
2013-05-03 01:10:00,46.7,42.7,29.99,North,11,5.0,9.0,86,0.00,SCT,,0.00,WeatherDisplay:10.37,2013-05-03 06:10:00,
2013-05-03 01:15:00,46.8,42.8,29.98,North,9,7.0,9.0,86,0.00,SCT,,0.00,WeatherDisplay:10.37,2013-05-03 06:15:00,
2013-05-03 01:20:00,46.8,42.8,29.98,NNE,13,6.0,8.0,86,0.00,SCT,,0.00,WeatherDisplay:10.37,2013-05-03 06:20:00,
2013-05-03 01:25:00,46.7,42.7,29.98,North,2,6.0,11.0,86,0.00,BKN,,0.00,WeatherDisplay:10.37,2013-05-03 06:25:00,
2013-05-03 01:35:00,46.7,42.7,29.98,North,358,7.0,8.0,86,0.00,BKN,,0.00,WeatherDisplay:10.37,2013-05-03 06:35:00,
2013-05-03 01:40:00,46.7,42.7,29.98,North,2,3.0,8.0,86,0.00,BKN,,0.00,WeatherDisplay:10.37,2013-05-03 06:40:00,
2013-05-03 01:45:00,46.7,42.7,29.98,North,352,5.0,6.0,86,0.00,SCT,,0.00,WeatherDisplay:10.37,2013-05-03 06:45:00,
2013-05-03 01:50:00,46.5,42.5,29.98,NNW,334,9.0,11.0,86,0.00,SCT,,0.00,WeatherDisplay:10.37,2013-05-03 06:50:00,
2013-05-03 02:00:00,46.4,42.4,29.97,North,357,6.0,9.0,86,0.00,SCT,,0.00,WeatherDisplay:10.37,2013-05-03 07:00:00,
2013-05-03 02:05:00,46.4,42.4,29.97,NNE,14,6.0,8.0,86,0.00,SCT,,0.00,WeatherDisplay:10.37,2013-05-03 07:05:00,
2013-05-03 02:10:00,46.2,42.2,29.97,NNE,15,5.0,8.0,86,0.00,SCT,,0.00,WeatherDisplay:10.37,2013-05-03 07:10:00,
2013-05-03 02:20:00,46.2,42.2,29.97,NNE,13,2.0,5.0,86,0.00,SCT,,0.00,WeatherDisplay:10.37,2013-05-03 07:20:00,
2013-05-03 02:25:00,46.2,42.2,29.97,NNE,26,2.0,8.0,86,0.00,SCT,,0.00,WeatherDisplay:10.37,2013-05-03 07:25:00,
2013-05-03 02:30:00,46.2,42.2,29.97,NNE,24,5.0,5.0,86,0.00,SCT,,0.00,WeatherDisplay:10.37,2013-05-03 07:30:00,
2013-05-03 02:35:00,46.2,42.2,29.97,North,8,6.0,9.0,86,0.00,CLR,,0.00,WeatherDisplay:10.37,2013-05-03 07:35:00,
2013-05-03 02:40:00,46.2,42.2,29.96,North,357,2.0,8.0,86,0.00,CLR,,0.00,WeatherDisplay:10.37,2013-05-03 07:40:00,
2013-05-03 02:45:00,46.2,42.2,29.97,NNE,19,6.0,8.0,86,0.00,CLR,,0.00,WeatherDisplay:10.37,2013-05-03 07:45:00,
2013-05-03 02:50:00,46.2,42.2,29.96,NNE,32,5.0,9.0,86,0.00,CLR,,0.00,WeatherDisplay:10.37,2013-05-03 07:50:00,
2013-05-03 02:55:00,46.2,42.2,29.96,NNE,25,9.0,11.0,86,0.00,CLR,,0.00,WeatherDisplay:10.37,2013-05-03 07:55:00,
2013-05-03 03:00:00,46.2,42.2,29.96,NNE,30,6.0,9.0,86,0.00,CLR,,0.00,WeatherDisplay:10.37,2013-05-03 08:00:00,
2013-05-03 03:05:00,46.1,41.8,29.96,NNE,29,8.0,11.0,85,0.00,CLR,,0.00,WeatherDisplay:10.37,2013-05-03 08:05:00,
2013-05-03 03:10:00,46.1,41.8,29.96,NNE,27,8.0,12.0,85,0.00,CLR,,0.00,WeatherDisplay:10.37,2013-05-03 08:10:00,
2013-05-03 03:15:00,46.1,41.8,29.96,NNE,30,8.0,11.0,85,0.00,CLR,,0.00,WeatherDisplay:10.37,2013-05-03 08:15:00,
2013-05-03 03:20:00,46.1,41.8,29.96,NE,34,9.0,9.0,85,0.00,CLR,,0.00,WeatherDisplay:10.37,2013-05-03 08:20:00,
2013-05-03 03:25:00,46.1,41.8,29.95,NE,46,6.0,9.0,85,0.00,CLR,,0.00,WeatherDisplay:10.37,2013-05-03 08:25:00,
2013-05-03 03:30:00,46.1,41.8,29.96,NE,42,10.0,14.0,85,0.00,CLR,,0.00,WeatherDisplay:10.37,2013-05-03 08:30:00,
2013-05-03 03:35:00,46.0,41.7,29.96,NNE,23,9.0,9.0,85,0.00,CLR,,0.00,WeatherDisplay:10.37,2013-05-03 08:35:00,
2013-05-03 03:40:00,46.0,41.7,29.96,NNE,24,7.0,11.0,85,0.00,CLR,,0.00,WeatherDisplay:10.37,2013-05-03 08:40:00,
2013-05-03 03:45:00,45.8,41.5,29.96,NNE,19,7.0,8.0,85,0.00,CLR,,0.00,WeatherDisplay:10.37,2013-05-03 08:45:00,
2013-05-03 03:50:00,45.8,41.5,29.95,NNE,22,8.0,11.0,85,0.00,CLR,,0.00,WeatherDisplay:10.37,2013-05-03 08:50:00,
2013-05-03 03:55:00,45.8,41.5,29.95,NNE,19,6.0,8.0,85,0.00,CLR,,0.00,WeatherDisplay:10.37,2013-05-03 08:55:00,
2013-05-03 04:00:00,45.7,41.5,29.95,NNE,28,5.0,11.0,85,0.00,CLR,,0.00,WeatherDisplay:10.37,2013-05-03 09:00:00,
2013-05-03 04:05:00,45.7,41.4,29.95,NE,36,7.0,14.0,85,0.00,CLR,,0.00,WeatherDisplay:10.37,2013-05-03 09:05:00,
2013-05-03 04:10:00,45.7,41.8,29.95,NNE,30,9.0,15.0,86,0.00,CLR,,0.00,WeatherDisplay:10.37,2013-05-03 09:10:00,
2013-05-03 04:15:00,45.7,41.8,29.95,NE,34,8.0,9.0,86,0.00,CLR,,0.00,WeatherDisplay:10.37,2013-05-03 09:15:00,
2013-05-03 04:20:00,45.8,41.9,29.95,NE,37,5.0,8.0,86,0.00,CLR,,0.00,WeatherDisplay:10.37,2013-05-03 09:20:00,
2013-05-03 04:25:00,45.8,41.9,29.95,NNE,28,7.0,9.0,86,0.00,CLR,,0.00,WeatherDisplay:10.37,2013-05-03 09:25:00,
2013-05-03 04:30:00,45.8,41.9,29.95,NNE,23,6.0,14.0,86,0.00,CLR,,0.00,WeatherDisplay:10.37,2013-05-03 09:30:00,
2013-05-03 04:35:00,46.0,42.0,29.95,NE,41,6.0,9.0,86,0.00,CLR,,0.00,WeatherDisplay:10.37,2013-05-03 09:35:00,
2013-05-03 04:45:00,46.1,42.1,29.95,NE,34,5.0,8.0,86,0.00,CLR,,0.00,WeatherDisplay:10.37,2013-05-03 09:45:00,
2013-05-03 04:50:00,46.1,42.1,29.95,ENE,58,6.0,9.0,86,0.00,CLR,,0.00,WeatherDisplay:10.37,2013-05-03 09:50:00,
2013-05-03 04:55:00,46.1,42.1,29.95,NE,56,7.0,11.0,86,0.00,SCT,,0.00,WeatherDisplay:10.37,2013-05-03 09:55:00,
2013-05-03 05:00:00,46.1,42.1,29.95,NE,40,2.0,6.0,86,0.00,SCT,,0.00,WeatherDisplay:10.37,2013-05-03 10:00:00,
2013-05-03 05:05:00,46.1,42.1,29.95,NE,41,5.0,9.0,86,0.00,SCT,,0.00,WeatherDisplay:10.37,2013-05-03 10:05:00,
2013-05-03 05:10:00,46.0,42.0,29.95,NE,44,9.0,11.0,86,0.00,SCT,,0.00,WeatherDisplay:10.37,2013-05-03 10:10:00,
2013-05-03 05:15:00,45.8,42.2,29.95,NE,36,5.0,11.0,87,0.00,-RA,,0.00,WeatherDisplay:10.37,2013-05-03 10:15:00,
2013-05-03 05:20:00,45.8,42.2,29.95,NE,39,2.0,14.0,87,0.00,-RA,,0.00,WeatherDisplay:10.37,2013-05-03 10:20:00,
2013-05-03 05:25:00,45.8,42.2,29.95,NE,56,3.0,9.0,87,0.00,-RA,,0.00,WeatherDisplay:10.37,2013-05-03 10:25:00,
2013-05-03 05:30:00,46.0,42.3,29.95,ENE,63,2.0,8.0,87,0.00,-RA,,0.00,WeatherDisplay:10.37,2013-05-03 10:30:00,
2013-05-03 05:35:00,46.0,42.3,29.95,NE,52,5.0,8.0,87,0.00,-RA,,0.00,WeatherDisplay:10.37,2013-05-03 10:35:00,
2013-05-03 05:40:00,46.0,42.3,29.96,NE,50,0.0,8.0,87,0.00,-RA,,0.00,WeatherDisplay:10.37,2013-05-03 10:40:00,
2013-05-03 05:45:00,46.0,42.3,29.96,North,360,5.0,6.0,87,0.00,-RA,,0.00,WeatherDisplay:10.37,2013-05-03 10:45:00,
2013-05-03 05:50:00,46.0,42.3,29.96,NNW,346,7.0,7.0,87,0.00,-RA,,0.00,WeatherDisplay:10.37,2013-05-03 10:50:00,
2013-05-03 05:55:00,46.1,42.4,29.96,NNE,22,2.0,6.0,87,0.00,-RA,,0.00,WeatherDisplay:10.37,2013-05-03 10:55:00,
2013-05-03 06:00:00,46.1,42.4,29.96,NNE,25,6.0,8.0,87,0.00,-RA,,0.00,WeatherDisplay:10.37,2013-05-03 11:00:00,
2013-05-03 06:10:00,46.1,42.4,29.95,NNE,12,6.0,8.0,87,0.00,-RA,,0.00,WeatherDisplay:10.37,2013-05-03 11:10:00,
2013-05-03 06:15:00,46.2,42.5,29.96,NNE,26,6.0,9.0,87,0.00,-RA,,0.00,WeatherDisplay:10.37,2013-05-03 11:15:00,
2013-05-03 06:20:00,46.2,42.5,29.96,NNE,28,5.0,8.0,87,0.00,-RA,,0.00,WeatherDisplay:10.37,2013-05-03 11:20:00,
2013-05-03 06:25:00,46.2,42.8,29.96,NNE,16,6.0,8.0,88,0.00,-RA,,0.00,WeatherDisplay:10.37,2013-05-03 11:25:00,
2013-05-03 06:30:00,46.4,43.0,29.96,NNE,20,6.0,9.0,88,0.00,-RA,,0.00,WeatherDisplay:10.37,2013-05-03 11:30:00,
2013-05-03 06:35:00,46.4,43.0,29.95,NNE,20,7.0,8.0,88,0.00,SCT,,0.00,WeatherDisplay:10.37,2013-05-03 11:35:00,
2013-05-03 06:40:00,46.5,43.1,29.95,NE,35,5.0,8.0,88,0.00,SCT,,0.00,WeatherDisplay:10.37,2013-05-03 11:40:00,
2013-05-03 06:45:00,46.7,43.3,29.95,NE,52,7.0,9.0,88,0.00,SCT,,0.00,WeatherDisplay:10.37,2013-05-03 11:45:00,
2013-05-03 06:50:00,46.7,43.3,29.96,NE,43,0.0,6.0,88,0.00,SCT,,0.00,WeatherDisplay:10.37,2013-05-03 11:50:00,
2013-05-03 06:55:00,46.8,43.4,29.96,NE,52,5.0,8.0,88,0.00,SCT,,0.00,WeatherDisplay:10.37,2013-05-03 11:55:00,
2013-05-03 07:00:00,47.1,43.7,29.96,ENE,60,2.0,6.0,88,0.00,SCT,,0.00,WeatherDisplay:10.37,2013-05-03 12:00:00,
2013-05-03 07:05:00,47.3,43.9,29.95,ENE,58,5.0,8.0,88,0.01,RA,,0.01,WeatherDisplay:10.37,2013-05-03 12:05:00,
2013-05-03 07:10:00,47.4,44.3,29.95,NE,55,3.0,6.0,89,0.01,RA,,0.01,WeatherDisplay:10.37,2013-05-03 12:10:00,
2013-05-03 07:15:00,47.4,44.3,29.95,NE,49,3.0,8.0,89,0.00,BKN,,0.01,WeatherDisplay:10.37,2013-05-03 12:15:00,
2013-05-03 07:20:00,47.6,44.5,29.95,NE,39,0.0,8.0,89,0.00,BKN,,0.01,WeatherDisplay:10.37,2013-05-03 12:20:00,
2013-05-03 07:30:00,47.9,44.8,29.95,ENE,62,2.0,6.0,89,0.00,-RA,,0.01,WeatherDisplay:10.37,2013-05-03 12:30:00,
2013-05-03 07:35:00,48.0,44.9,29.95,NE,52,7.0,11.0,89,0.00,-RA,,0.01,WeatherDisplay:10.37,2013-05-03 12:35:00,
2013-05-03 07:40:00,48.0,44.9,29.95,NE,36,3.0,9.0,89,0.00,-RA,,0.01,WeatherDisplay:10.37,2013-05-03 12:40:00,
2013-05-03 07:45:00,48.2,45.1,29.95,NNE,24,3.0,6.0,89,0.00,-RA,,0.01,WeatherDisplay:10.37,2013-05-03 12:45:00,
2013-05-03 07:50:00,48.5,45.7,29.95,NE,40,2.0,6.0,90,0.00,-RA,,0.01,WeatherDisplay:10.37,2013-05-03 12:50:00,
2013-05-03 07:55:00,48.8,46.0,29.95,ENE,58,1.0,5.0,90,0.00,-RA,,0.01,WeatherDisplay:10.37,2013-05-03 12:55:00,
2013-05-03 08:00:00,48.9,46.1,29.95,NE,42,3.0,8.0,90,0.00,-RA,,0.01,WeatherDisplay:10.37,2013-05-03 13:00:00,
2013-05-03 08:05:00,49.1,46.0,29.96,NE,38,1.0,5.0,89,0.00,-RA,,0.01,WeatherDisplay:10.37,2013-05-03 13:05:00,
2013-05-03 08:10:00,49.1,46.0,29.96,NE,54,1.0,6.0,89,0.00,-RA,,0.01,WeatherDisplay:10.37,2013-05-03 13:10:00,
2013-05-03 08:15:00,49.3,46.5,29.96,ENE,62,1.0,5.0,90,0.00,-RA,,0.01,WeatherDisplay:10.37,2013-05-03 13:15:00,
2013-05-03 08:20:00,49.6,46.8,29.95,ENE,62,2.0,6.0,90,0.00,-RA,,0.01,WeatherDisplay:10.37,2013-05-03 13:20:00,
2013-05-03 08:25:00,49.8,47.0,29.95,ENE,73,0.0,9.0,90,0.00,-RA,,0.01,WeatherDisplay:10.37,2013-05-03 13:25:00,
2013-05-03 08:30:00,50.1,47.3,29.95,ENE,67,3.0,6.0,90,0.00,-RA,,0.01,WeatherDisplay:10.37,2013-05-03 13:30:00,
2013-05-03 08:35:00,50.2,47.4,29.95,ENE,57,1.0,6.0,90,0.00,-RA,,0.01,WeatherDisplay:10.37,2013-05-03 13:35:00,
2013-05-03 08:45:00,50.8,48.0,29.95,North,9,3.0,5.0,90,0.00,RA,,0.02,WeatherDisplay:10.37,2013-05-03 13:45:00,
2013-05-03 08:50:00,51.0,48.2,29.95,North,4,0.0,3.0,90,0.00,RA,,0.02,WeatherDisplay:10.37,2013-05-03 13:50:00,
2013-05-03 08:55:00,51.4,48.5,29.94,North,5,2.0,5.0,90,0.00,CLR,,0.02,WeatherDisplay:10.37,2013-05-03 13:55:00,
2013-05-03 09:00:00,51.7,48.8,29.94,NNE,24,3.0,5.0,90,0.00,CLR,,0.02,WeatherDisplay:10.37,2013-05-03 14:00:00,
2013-05-03 09:05:00,52.0,49.5,29.95,NE,53,1.0,5.0,91,0.00,CLR,,0.02,WeatherDisplay:10.37,2013-05-03 14:05:00,
2013-05-03 09:10:00,52.2,49.7,29.94,ENE,66,1.0,3.0,91,0.00,CLR,,0.02,WeatherDisplay:10.37,2013-05-03 14:10:00,
2013-05-03 09:15:00,52.3,49.8,29.94,ENE,66,0.0,3.0,91,0.00,SCT,,0.02,WeatherDisplay:10.37,2013-05-03 14:15:00,
2013-05-03 09:20:00,52.6,50.0,29.94,ENE,66,1.0,3.0,91,0.00,SCT,,0.02,WeatherDisplay:10.37,2013-05-03 14:20:00,
2013-05-03 09:30:00,53.2,50.6,29.93,ENE,66,1.0,3.0,91,0.00,SCT,,0.02,WeatherDisplay:10.37,2013-05-03 14:30:00,
2013-05-03 09:35:00,53.5,51.0,29.93,ENE,66,0.0,2.0,91,0.00, +RA,,0.02,WeatherDisplay:10.37,2013-05-03 14:35:00,
2013-05-03 09:40:00,54.0,51.7,29.93,ENE,66,0.0,2.0,92,0.00, +RA,,0.02,WeatherDisplay:10.37,2013-05-03 14:40:00,
2013-05-03 09:45:00,54.5,52.2,29.93,ENE,66,1.0,3.0,92,0.00,BKN,,0.02,WeatherDisplay:10.37,2013-05-03 14:45:00,
2013-05-03 09:50:00,54.8,52.5,29.93,ENE,66,0.0,3.0,92,0.00,BKN,,0.02,WeatherDisplay:10.37,2013-05-03 14:50:00,
2013-05-03 09:55:00,55.3,53.1,29.93,ENE,66,0.0,2.0,92,0.00,BKN,,0.02,WeatherDisplay:10.37,2013-05-03 14:55:00,
2013-05-03 10:00:00,55.9,53.6,29.93,SSE,167,1.0,6.0,92,0.00,BKN,,0.02,WeatherDisplay:10.37,2013-05-03 15:00:00,
2013-05-03 10:05:00,56.5,54.2,29.93,SSE,165,1.0,5.0,92,0.00,RA,,0.03,WeatherDisplay:10.37,2013-05-03 15:05:00,
2013-05-03 10:10:00,57.0,54.7,29.93,SSE,154,0.0,3.0,92,0.01,RA,,0.03,WeatherDisplay:10.37,2013-05-03 15:10:00,
2013-05-03 10:15:00,57.8,55.5,29.93,SSE,154,0.0,3.0,92,0.00,SCT,,0.03,WeatherDisplay:10.37,2013-05-03 15:15:00,
2013-05-03 10:20:00,58.6,56.0,29.93,SSE,154,3.0,5.0,91,0.00,SCT,,0.03,WeatherDisplay:10.37,2013-05-03 15:20:00,
2013-05-03 10:25:00,59.2,56.3,29.92,SSE,154,1.0,3.0,90,0.00,CLR,,0.03,WeatherDisplay:10.37,2013-05-03 15:25:00,
2013-05-03 10:30:00,59.6,56.4,29.92,SSE,154,0.0,3.0,89,0.00,CLR,,0.03,WeatherDisplay:10.37,2013-05-03 15:30:00,
2013-05-03 10:40:00,61.3,58.0,29.92,ENE,74,1.0,5.0,89,0.00,CLR,,0.03,WeatherDisplay:10.37,2013-05-03 15:40:00,
2013-05-03 10:45:00,62.1,58.2,29.91,ENE,67,1.0,5.0,87,0.00,CLR,,0.03,WeatherDisplay:10.37,2013-05-03 15:45:00,
2013-05-03 10:50:00,62.8,58.6,29.91,ENE,71,1.0,5.0,86,0.00,CLR,,0.03,WeatherDisplay:10.37,2013-05-03 15:50:00,
2013-05-03 11:00:00,64.6,59.7,29.91,SSE,152,2.0,5.0,84,0.00,CLR,,0.03,WeatherDisplay:10.37,2013-05-03 16:00:00,
2013-05-03 11:05:00,65.3,59.6,29.91,SSE,151,3.0,5.0,82,0.00,CLR,,0.03,WeatherDisplay:10.37,2013-05-03 16:05:00,
2013-05-03 11:10:00,65.5,59.2,29.91,ESE,123,2.0,6.0,80,0.00,CLR,,0.03,WeatherDisplay:10.37,2013-05-03 16:10:00,
2013-05-03 11:15:00,65.6,59.3,29.91,East,97,2.0,5.0,80,0.00,CLR,,0.03,WeatherDisplay:10.37,2013-05-03 16:15:00,
2013-05-03 11:20:00,66.0,60.0,29.91,ESE,103,2.0,5.0,81,0.00,CLR,,0.03,WeatherDisplay:10.37,2013-05-03 16:20:00,
2013-05-03 11:25:00,66.0,59.7,29.91,ESE,105,3.0,5.0,80,0.00,CLR,,0.03,WeatherDisplay:10.37,2013-05-03 16:25:00,
2013-05-03 11:30:00,66.3,59.6,29.91,SE,130,8.0,9.0,79,0.00,CLR,,0.03,WeatherDisplay:10.37,2013-05-03 16:30:00,
2013-05-03 11:35:00,66.6,60.2,29.90,SSE,150,5.0,8.0,80,0.00,CLR,,0.03,WeatherDisplay:10.37,2013-05-03 16:35:00,
2013-05-03 11:40:00,66.7,60.0,29.90,SSE,156,6.0,11.0,79,0.00,CLR,,0.03,WeatherDisplay:10.37,2013-05-03 16:40:00,
2013-05-03 11:45:00,66.9,59.8,29.90,SSE,157,3.0,8.0,78,0.00, +RA,,0.03,WeatherDisplay:10.37,2013-05-03 16:45:00,
2013-05-03 11:50:00,67.1,59.6,29.89,SSE,157,3.0,8.0,77,0.00, +RA,,0.03,WeatherDisplay:10.37,2013-05-03 16:50:00,
2013-05-03 11:55:00,67.3,59.8,29.89,SSE,156,1.0,6.0,77,0.00, +RA,,0.03,WeatherDisplay:10.37,2013-05-03 16:55:00,
2013-05-03 12:00:00,67.4,59.6,29.89,SSE,154,5.0,5.0,76,0.00, +RA,,0.03,WeatherDisplay:10.37,2013-05-03 17:00:00,
2013-05-03 12:10:00,67.9,59.3,29.89,SE,142,10.0,18.0,74,0.00, +RA,,0.03,WeatherDisplay:10.37,2013-05-03 17:10:00,
2013-05-03 12:15:00,68.3,59.3,29.89,SE,146,8.0,17.0,73,0.00,CLR,,0.03,WeatherDisplay:10.37,2013-05-03 17:15:00,
2013-05-03 12:20:00,68.6,58.8,29.88,SE,141,3.0,8.0,71,0.00,CLR,,0.03,WeatherDisplay:10.37,2013-05-03 17:20:00,
2013-05-03 12:25:00,68.8,57.8,29.88,SE,135,9.0,11.0,68,0.00,CLR,,0.03,WeatherDisplay:10.37,2013-05-03 17:25:00,
2013-05-03 12:30:00,68.8,57.8,29.88,SE,138,5.0,9.0,68,0.00,CLR,,0.03,WeatherDisplay:10.37,2013-05-03 17:30:00,
2013-05-03 12:35:00,68.9,57.1,29.88,SSE,147,8.0,17.0,66,0.00, +RA,,0.03,WeatherDisplay:10.37,2013-05-03 17:35:00,
2013-05-03 12:40:00,68.9,57.9,29.88,SSE,148,6.0,10.0,68,0.00, +RA,,0.03,WeatherDisplay:10.37,2013-05-03 17:40:00,
2013-05-03 12:50:00,68.9,57.5,29.87,SSE,156,5.0,6.0,67,0.00, +RA,,0.03,WeatherDisplay:10.37,2013-05-03 17:50:00,
2013-05-03 12:55:00,69.1,57.7,29.87,SSE,152,8.0,11.0,67,0.00, +RA,,0.03,WeatherDisplay:10.37,2013-05-03 17:55:00,
2013-05-03 13:00:00,68.9,57.5,29.86,SE,143,6.0,14.0,67,0.00, +RA,,0.03,WeatherDisplay:10.37,2013-05-03 18:00:00,
2013-05-03 13:05:00,69.1,57.7,29.86,SE,144,5.0,12.0,67,0.00, +RA,,0.03,WeatherDisplay:10.37,2013-05-03 18:05:00,
2013-05-03 13:10:00,69.2,57.3,29.86,SE,143,6.0,17.0,66,0.00, +RA,,0.03,WeatherDisplay:10.37,2013-05-03 18:10:00,
2013-05-03 13:15:00,69.3,57.0,29.86,SE,140,7.0,17.0,65,0.00,-RA,,0.03,WeatherDisplay:10.37,2013-05-03 18:15:00,
2013-05-03 13:20:00,69.3,57.0,29.86,SE,138,5.0,18.0,65,0.00,-RA,,0.03,WeatherDisplay:10.37,2013-05-03 18:20:00,
2013-05-03 13:25:00,69.4,57.5,29.86,SE,142,5.0,9.0,66,0.00,-RA,,0.03,WeatherDisplay:10.37,2013-05-03 18:25:00,
2013-05-03 13:30:00,69.4,58.0,29.86,SE,146,3.0,9.0,67,0.00,-RA,,0.03,WeatherDisplay:10.37,2013-05-03 18:30:00,
2013-05-03 13:35:00,69.6,59.0,29.86,SE,140,6.0,6.0,69,0.00, +RA,,0.03,WeatherDisplay:10.37,2013-05-03 18:35:00,
2013-05-03 13:40:00,69.6,58.9,29.86,SE,135,6.0,9.0,69,0.00, +RA,,0.03,WeatherDisplay:10.37,2013-05-03 18:40:00,
2013-05-03 13:45:00,69.4,58.8,29.86,SE,129,6.0,8.0,69,0.00,CLR,,0.03,WeatherDisplay:10.37,2013-05-03 18:45:00,
2013-05-03 13:50:00,69.6,59.0,29.86,SE,134,5.0,8.0,69,0.00,CLR,,0.03,WeatherDisplay:10.37,2013-05-03 18:50:00,
2013-05-03 13:55:00,69.8,59.2,29.86,SSE,152,5.0,8.0,69,0.00,CLR,,0.03,WeatherDisplay:10.37,2013-05-03 18:55:00,
2013-05-03 14:00:00,69.9,58.0,29.85,SE,143,8.0,11.0,66,0.00,CLR,,0.03,WeatherDisplay:10.37,2013-05-03 19:00:00,
2013-05-03 14:05:00,70.1,57.4,29.85,SE,137,7.0,11.0,64,0.00,CLR,,0.03,WeatherDisplay:10.37,2013-05-03 19:05:00,
2013-05-03 14:10:00,70.3,57.5,29.85,SE,144,6.0,12.0,64,0.00,CLR,,0.03,WeatherDisplay:10.37,2013-05-03 19:10:00,
2013-05-03 14:15:00,70.6,56.5,29.85,SSE,147,10.0,11.0,61,0.00, +RA,,0.03,WeatherDisplay:10.37,2013-05-03 19:15:00,
2013-05-03 14:20:00,70.6,56.0,29.85,SE,144,8.0,14.0,60,0.00, +RA,,0.03,WeatherDisplay:10.37,2013-05-03 19:20:00,
2013-05-03 14:25:00,70.9,55.9,29.85,SE,136,9.0,14.0,59,0.00, +RA,,0.03,WeatherDisplay:10.37,2013-05-03 19:25:00,
2013-05-03 14:30:00,71.1,56.0,29.85,ESE,122,9.0,15.0,59,0.00, +RA,,0.03,WeatherDisplay:10.37,2013-05-03 19:30:00,
2013-05-03 14:35:00,71.3,55.8,29.85,SE,136,7.0,17.0,58,0.00, +RA,,0.03,WeatherDisplay:10.37,2013-05-03 19:35:00,
2013-05-03 14:40:00,71.5,56.0,29.85,SE,138,1.0,8.0,58,0.00, +RA,,0.03,WeatherDisplay:10.37,2013-05-03 19:40:00,
2013-05-03 14:45:00,71.8,56.7,29.84,SE,125,9.0,14.0,59,0.00, +RA,,0.03,WeatherDisplay:10.37,2013-05-03 19:45:00,
2013-05-03 14:50:00,71.8,55.7,29.84,SE,130,9.0,15.0,57,0.00, +RA,,0.03,WeatherDisplay:10.37,2013-05-03 19:50:00,
2013-05-03 14:55:00,72.0,55.4,29.84,SE,141,7.0,17.0,56,0.00,CLR,,0.03,WeatherDisplay:10.37,2013-05-03 19:55:00,
2013-05-03 15:00:00,72.1,54.5,29.84,SSE,158,6.0,14.0,54,0.00,CLR,,0.03,WeatherDisplay:10.37,2013-05-03 20:00:00,
2013-05-03 15:05:00,72.4,54.8,29.83,SSE,156,6.0,8.0,54,0.00,CLR,,0.03,WeatherDisplay:10.37,2013-05-03 20:05:00,
2013-05-03 15:10:00,72.7,55.1,29.83,SE,135,9.0,9.0,54,0.00,CLR,,0.03,WeatherDisplay:10.37,2013-05-03 20:10:00,
2013-05-03 15:15:00,72.7,55.1,29.83,SE,135,5.0,17.0,54,0.00,CLR,,0.03,WeatherDisplay:10.37,2013-05-03 20:15:00,
2013-05-03 15:20:00,72.7,55.1,29.83,SE,145,5.0,9.0,54,0.00,CLR,,0.03,WeatherDisplay:10.37,2013-05-03 20:20:00,
2013-05-03 15:25:00,72.8,54.7,29.83,SSE,156,5.0,6.0,53,0.00,CLR,,0.03,WeatherDisplay:10.37,2013-05-03 20:25:00,
2013-05-03 15:30:00,72.8,55.2,29.83,SSE,163,5.0,8.0,54,0.00,CLR,,0.03,WeatherDisplay:10.37,2013-05-03 20:30:00,
2013-05-03 15:35:00,72.8,54.7,29.83,SE,144,7.0,9.0,53,0.00, +RA,,0.03,WeatherDisplay:10.37,2013-05-03 20:35:00,
2013-05-03 15:40:00,72.6,55.0,29.82,SE,144,7.0,11.0,54,0.00, +RA,,0.03,WeatherDisplay:10.37,2013-05-03 20:40:00,
2013-05-03 15:45:00,72.3,55.3,29.82,SSE,152,6.0,14.0,55,0.00, +RA,,0.03,WeatherDisplay:10.37,2013-05-03 20:45:00,
2013-05-03 15:50:00,72.5,55.4,29.82,SE,139,3.0,14.0,55,0.00, +RA,,0.03,WeatherDisplay:10.37,2013-05-03 20:50:00,
2013-05-03 15:55:00,72.5,55.4,29.82,SE,132,5.0,8.0,55,0.00,BKN,,0.03,WeatherDisplay:10.37,2013-05-03 20:55:00,
2013-05-03 16:00:00,72.7,56.1,29.81,SSE,153,7.0,11.0,56,0.00,BKN,,0.03,WeatherDisplay:10.37,2013-05-03 21:00:00,
2013-05-03 16:10:00,73.0,57.8,29.81,SSE,160,2.0,8.0,59,0.00,BKN,,0.03,WeatherDisplay:10.37,2013-05-03 21:10:00,
2013-05-03 16:15:00,73.2,58.0,29.81,SE,137,8.0,17.0,59,0.00, +RA,,0.03,WeatherDisplay:10.37,2013-05-03 21:15:00,
2013-05-03 16:25:00,73.0,57.8,29.80,SE,136,6.0,9.0,59,0.00, +RA,,0.03,WeatherDisplay:10.37,2013-05-03 21:25:00,
2013-05-03 16:30:00,73.2,57.5,29.80,SE,139,6.0,9.0,58,0.00, +RA,,0.03,WeatherDisplay:10.37,2013-05-03 21:30:00,
2013-05-03 16:35:00,73.2,58.5,29.80,SE,142,6.0,8.0,60,0.00,SCT,,0.03,WeatherDisplay:10.37,2013-05-03 21:35:00,
2013-05-03 16:40:00,73.2,58.0,29.80,SE,146,6.0,11.0,59,0.00,SCT,,0.03,WeatherDisplay:10.37,2013-05-03 21:40:00,
2013-05-03 16:45:00,73.3,58.6,29.80,SE,137,3.0,9.0,60,0.00,SCT,,0.03,WeatherDisplay:10.37,2013-05-03 21:45:00,
2013-05-03 16:50:00,73.2,58.0,29.80,SE,138,8.0,17.0,59,0.00,SCT,,0.03,WeatherDisplay:10.37,2013-05-03 21:50:00,
2013-05-03 16:55:00,73.2,58.5,29.80,SE,126,2.0,5.0,60,0.00, +RA,,0.03,WeatherDisplay:10.37,2013-05-03 21:55:00,
2013-05-03 17:00:00,73.0,58.8,29.80,ESE,116,5.0,15.0,61,0.00, +RA,,0.03,WeatherDisplay:10.37,2013-05-03 22:00:00,
2013-05-03 17:05:00,72.7,58.5,29.80,SE,132,6.0,9.0,61,0.00, +RA,,0.03,WeatherDisplay:10.37,2013-05-03 22:05:00,
2013-05-03 17:10:00,72.7,58.5,29.80,SE,131,7.0,11.0,61,0.00, +RA,,0.03,WeatherDisplay:10.37,2013-05-03 22:10:00,
2013-05-03 17:15:00,72.5,58.7,29.80,ESE,109,1.0,6.0,62,0.00, +RA,,0.03,WeatherDisplay:10.37,2013-05-03 22:15:00,
2013-05-03 17:20:00,72.4,58.6,29.80,East,93,5.0,6.0,62,0.00, +RA,,0.03,WeatherDisplay:10.37,2013-05-03 22:20:00,
2013-05-03 17:25:00,72.3,58.5,29.80,SE,139,3.0,6.0,62,0.00, +RA,,0.03,WeatherDisplay:10.37,2013-05-03 22:25:00,
2013-05-03 17:30:00,72.3,58.5,29.80,ESE,123,3.0,9.0,62,0.00, +RA,,0.03,WeatherDisplay:10.37,2013-05-03 22:30:00,
2013-05-03 17:35:00,72.1,58.8,29.80,ESE,123,2.0,9.0,63,0.00, +RA,,0.03,WeatherDisplay:10.37,2013-05-03 22:35:00,
2013-05-03 17:40:00,72.1,58.8,29.80,SE,131,1.0,3.0,63,0.00, +RA,,0.03,WeatherDisplay:10.37,2013-05-03 22:40:00,
2013-05-03 17:45:00,72.0,58.7,29.80,ESE,117,1.0,5.0,63,0.00, +RA,,0.03,WeatherDisplay:10.37,2013-05-03 22:45:00,
2013-05-03 17:55:00,71.8,59.0,29.80,ESE,116,0.0,3.0,64,0.00,CLR,,0.03,WeatherDisplay:10.37,2013-05-03 22:55:00,
2013-05-03 18:00:00,71.5,59.1,29.80,ESE,116,0.0,3.0,65,0.00,CLR,,0.03,WeatherDisplay:10.37,2013-05-03 23:00:00,
2013-05-03 18:05:00,71.3,58.9,29.80,ESE,116,0.0,2.0,65,0.00,SCT,,0.03,WeatherDisplay:10.37,2013-05-03 23:05:00,
2013-05-03 18:10:00,71.3,58.5,29.79,ESE,116,2.0,3.0,64,0.00,SCT,,0.03,WeatherDisplay:10.37,2013-05-03 23:10:00,
2013-05-03 18:15:00,71.3,58.9,29.79,ESE,116,1.0,3.0,65,0.00,SCT,,0.03,WeatherDisplay:10.37,2013-05-03 23:15:00,
2013-05-03 18:20:00,71.3,58.9,29.79,ESE,116,0.0,2.0,65,0.00,SCT,,0.03,WeatherDisplay:10.37,2013-05-03 23:20:00,
2013-05-03 18:25:00,71.3,58.9,29.78,ESE,115,1.0,3.0,65,0.00,SCT,,0.03,WeatherDisplay:10.37,2013-05-03 23:25:00,
2013-05-03 18:30:00,71.3,58.5,29.78,ESE,113,2.0,5.0,64,0.00,SCT,,0.03,WeatherDisplay:10.37,2013-05-03 23:30:00,
2013-05-03 18:40:00,71.3,58.5,29.78,ESE,114,0.0,3.0,64,0.00,SCT,,0.03,WeatherDisplay:10.37,2013-05-03 23:40:00,
2013-05-03 18:45:00,71.3,58.5,29.78,ESE,113,1.0,3.0,64,0.00,SCT,,0.03,WeatherDisplay:10.37,2013-05-03 23:45:00,
2013-05-03 18:50:00,71.1,57.9,29.78,ESE,113,1.0,3.0,63,0.00,SCT,,0.03,WeatherDisplay:10.37,2013-05-03 23:50:00,
2013-05-03 18:55:00,71.1,57.9,29.79,SE,135,2.0,5.0,63,0.00,SCT,,0.03,WeatherDisplay:10.37,2013-05-03 23:55:00,
2013-05-03 19:00:00,71.1,57.9,29.79,SE,131,1.0,5.0,63,0.00,SCT,,0.03,WeatherDisplay:10.37,2013-05-04 00:00:00,
2013-05-03 19:05:00,70.9,57.7,29.79,ESE,113,1.0,5.0,63,0.00,CLR,,0.03,WeatherDisplay:10.37,2013-05-04 00:05:00,
2013-05-03 19:10:00,70.9,57.7,29.79,SE,127,1.0,5.0,63,0.00,CLR,,0.03,WeatherDisplay:10.37,2013-05-04 00:10:00,
2013-05-03 19:15:00,70.8,57.6,29.79,SSE,153,1.0,5.0,63,0.00,CLR,,0.03,WeatherDisplay:10.37,2013-05-04 00:15:00,
2013-05-03 19:20:00,70.8,58.0,29.79,SSE,158,1.0,5.0,64,0.00,CLR,,0.03,WeatherDisplay:10.37,2013-05-04 00:20:00,
2013-05-03 19:25:00,70.6,57.8,29.79,SSE,160,1.0,3.0,64,0.00,CLR,,0.03,WeatherDisplay:10.37,2013-05-04 00:25:00,
2013-05-03 19:30:00,70.4,57.6,29.79,SSE,163,0.0,5.0,64,0.00,CLR,,0.03,WeatherDisplay:10.37,2013-05-04 00:30:00,
2013-05-03 19:35:00,70.3,57.5,29.80,SSE,164,2.0,3.0,64,0.00, +RA,,0.03,WeatherDisplay:10.37,2013-05-04 00:35:00,
2013-05-03 19:40:00,70.1,57.8,29.80,SSE,164,0.0,3.0,65,0.00, +RA,,0.03,WeatherDisplay:10.37,2013-05-04 00:40:00,
2013-05-03 19:45:00,69.9,57.6,29.80,SSE,164,0.0,3.0,65,0.00, +RA,,0.03,WeatherDisplay:10.37,2013-05-04 00:45:00,
2013-05-03 19:55:00,69.6,57.7,29.80,South,177,1.0,3.0,66,0.00,SCT,,0.03,WeatherDisplay:10.37,2013-05-04 00:55:00,
2013-05-03 20:00:00,69.4,57.5,29.80,SSE,160,2.0,5.0,66,0.00,SCT,,0.03,WeatherDisplay:10.37,2013-05-04 01:00:00,
2013-05-03 20:05:00,69.4,57.5,29.80,ESE,103,1.0,3.0,66,0.00,SCT,,0.03,WeatherDisplay:10.37,2013-05-04 01:05:00,
2013-05-03 20:10:00,69.3,57.5,29.80,East,90,0.0,3.0,66,0.00,SCT,,0.03,WeatherDisplay:10.37,2013-05-04 01:10:00,
2013-05-03 20:15:00,69.1,57.7,29.80,East,90,1.0,5.0,67,0.00,CLR,,0.03,WeatherDisplay:10.37,2013-05-04 01:15:00,
2013-05-03 20:20:00,69.0,57.6,29.80,East,90,3.0,3.0,67,0.00,CLR,,0.03,WeatherDisplay:10.37,2013-05-04 01:20:00,
2013-05-03 20:25:00,68.9,57.5,29.80,East,90,1.0,3.0,67,0.00,CLR,,0.03,WeatherDisplay:10.37,2013-05-04 01:25:00,
2013-05-03 20:30:00,68.8,57.8,29.80,East,90,1.0,3.0,68,0.00,CLR,,0.03,WeatherDisplay:10.37,2013-05-04 01:30:00,
2013-05-03 20:40:00,68.4,57.8,29.80,East,90,2.0,3.0,69,0.00,SCT,,0.03,WeatherDisplay:10.37,2013-05-04 01:40:00,
2013-05-03 20:45:00,68.3,57.7,29.80,East,90,2.0,5.0,69,0.00, +RA,,0.03,WeatherDisplay:10.37,2013-05-04 01:45:00,
2013-05-03 20:50:00,68.1,57.5,29.80,East,89,1.0,3.0,69,0.00, +RA,,0.03,WeatherDisplay:10.37,2013-05-04 01:50:00,
2013-05-03 20:55:00,68.1,57.5,29.81,East,89,2.0,3.0,69,0.00, +RA,,0.03,WeatherDisplay:10.37,2013-05-04 01:55:00,
2013-05-03 21:00:00,67.9,57.7,29.80,East,89,0.0,3.0,70,0.00, +RA,,0.03,WeatherDisplay:10.37,2013-05-04 02:00:00,
2013-05-03 21:05:00,67.8,57.7,29.80,East,89,0.0,3.0,70,0.00, +RA,,0.03,WeatherDisplay:10.37,2013-05-04 02:05:00,
2013-05-03 21:10:00,67.6,57.5,29.81,East,89,1.0,2.0,70,0.00, +RA,,0.03,WeatherDisplay:10.37,2013-05-04 02:10:00,
2013-05-03 21:15:00,67.4,57.7,29.81,East,89,2.0,3.0,71,0.00,CLR,,0.03,WeatherDisplay:10.37,2013-05-04 02:15:00,
2013-05-03 21:20:00,67.4,57.7,29.81,East,91,2.0,5.0,71,0.00,CLR,,0.03,WeatherDisplay:10.37,2013-05-04 02:20:00,
2013-05-03 21:25:00,67.4,57.7,29.81,East,93,1.0,5.0,71,0.00,CLR,,0.03,WeatherDisplay:10.37,2013-05-04 02:25:00,
2013-05-03 21:30:00,67.4,57.6,29.81,ENE,75,2.0,6.0,71,0.00,CLR,,0.03,WeatherDisplay:10.37,2013-05-04 02:30:00,
2013-05-03 21:35:00,67.3,58.0,29.81,ENE,62,1.0,3.0,72,0.00,CLR,,0.03,WeatherDisplay:10.37,2013-05-04 02:35:00,
2013-05-03 21:40:00,67.3,58.0,29.81,ENE,64,2.0,5.0,72,0.00,CLR,,0.03,WeatherDisplay:10.37,2013-05-04 02:40:00,
2013-05-03 21:45:00,67.3,58.0,29.81,ENE,65,0.0,5.0,72,0.00,CLR,,0.03,WeatherDisplay:10.37,2013-05-04 02:45:00,
2013-05-03 21:50:00,67.3,58.0,29.82,East,80,3.0,5.0,72,0.00,CLR,,0.03,WeatherDisplay:10.37,2013-05-04 02:50:00,
2013-05-03 21:55:00,67.3,58.0,29.83,SE,139,14.0,23.0,72,0.00,SCT,,0.03,WeatherDisplay:10.37,2013-05-04 02:55:00,
2013-05-03 22:00:00,67.9,56.9,29.84,SSE,153,15.0,28.0,68,0.00,SCT,,0.03,WeatherDisplay:10.37,2013-05-04 03:00:00,
2013-05-03 22:05:00,67.3,54.7,29.84,SSE,154,15.0,21.0,64,0.00,SCT,,0.03,WeatherDisplay:10.37,2013-05-04 03:05:00,
2013-05-03 22:10:00,66.2,54.9,29.84,SSE,152,12.0,17.0,67,0.00,SCT,,0.03,WeatherDisplay:10.37,2013-05-04 03:10:00,
2013-05-03 22:15:00,64.4,55.6,29.85,SSE,156,12.0,21.0,73,0.00,BKN,,0.03,WeatherDisplay:10.37,2013-05-04 03:15:00,
2013-05-03 22:20:00,62.7,56.1,29.86,SSE,160,18.0,25.0,79,0.02,RA,,0.06,WeatherDisplay:10.37,2013-05-04 03:20:00,
2013-05-03 22:25:00,61.5,55.9,29.86,SSE,167,7.0,17.0,82,0.05,RA,,0.08,WeatherDisplay:10.37,2013-05-04 03:25:00,
2013-05-03 22:30:00,60.8,55.9,29.85,SSE,167,5.0,8.0,84,0.04,RA,,0.09,WeatherDisplay:10.37,2013-05-04 03:30:00,
2013-05-03 22:35:00,60.4,55.9,29.85,SSE,168,3.0,9.0,85,0.00,RA,,0.09,WeatherDisplay:10.37,2013-05-04 03:35:00,
2013-05-03 22:40:00,60.2,55.7,29.84,SSE,166,2.0,6.0,85,0.01,RA,,0.10,WeatherDisplay:10.37,2013-05-04 03:40:00,
2013-05-03 22:45:00,60.2,56.0,29.84,SSE,158,7.0,11.0,86,0.00,RA,,0.10,WeatherDisplay:10.37,2013-05-04 03:45:00,
2013-05-03 22:50:00,60.4,56.5,29.84,SSE,154,3.0,9.0,87,0.01,RA,,0.11,WeatherDisplay:10.37,2013-05-04 03:50:00,
2013-05-03 22:55:00,60.2,56.3,29.84,SSE,147,5.0,8.0,87,0.02,RA,,0.12,WeatherDisplay:10.37,2013-05-04 03:55:00,
2013-05-03 23:00:00,60.2,56.6,29.84,SE,130,3.0,5.0,88,0.00,RA,,0.12,WeatherDisplay:10.37,2013-05-04 04:00:00,
2013-05-03 23:05:00,60.2,56.6,29.84,ESE,109,0.0,2.0,88,0.00,-RA,,0.12,WeatherDisplay:10.37,2013-05-04 04:05:00,
2013-05-03 23:10:00,60.2,56.6,29.84,ESE,109,0.0,2.0,88,0.00,-RA,,0.12,WeatherDisplay:10.37,2013-05-04 04:10:00,
2013-05-03 23:15:00,60.2,56.9,29.85,ESE,109,0.0,2.0,89,0.00,-RA,,0.12,WeatherDisplay:10.37,2013-05-04 04:15:00,
2013-05-03 23:20:00,60.2,56.9,29.85,ESE,112,3.0,5.0,89,0.00,-RA,,0.12,WeatherDisplay:10.37,2013-05-04 04:20:00,
2013-05-03 23:30:00,60.2,57.0,29.86,SE,129,6.0,8.0,89,0.01,-RA,,0.13,WeatherDisplay:10.37,2013-05-04 04:30:00,
2013-05-03 23:35:00,60.4,57.1,29.86,SE,143,5.0,9.0,89,0.00,-RA,,0.13,WeatherDisplay:10.37,2013-05-04 04:35:00,
2013-05-03 23:40:00,60.2,56.9,29.85,SE,139,5.0,9.0,89,0.00,-RA,,0.13,WeatherDisplay:10.37,2013-05-04 04:40:00,
2013-05-03 23:45:00,60.2,56.9,29.85,SE,133,7.0,9.0,89,0.00,-RA,,0.14,WeatherDisplay:10.37,2013-05-04 04:45:00,
2013-05-03 23:50:00,60.2,56.9,29.85,SE,138,5.0,6.0,89,0.01,-RA,,0.14,WeatherDisplay:10.37,2013-05-04 04:50:00,
2013-05-03 23:55:00,60.2,56.9,29.85,SE,142,1.0,8.0,89,0.00,-RA,,0.14,WeatherDisplay:10.37,2013-05-04 04:55:00,